Terminal Aerodrome Forecast
Issued by NWS

Home | Current Version | Previous Version | Text Only | Print | Product List | Glossary On
Versions: 1 2 3 4 5 6 7 8 9 10 11 12 13 14 15 16 17 18 19 20 21 22 23
000
FTUS45 KVEF 181120
TAFLAS
TAF
KLAS 181120Z 1812/1918 21006KT P6SM BKN250
     FM181600 VRB05KT P6SM BKN150
     FM182000 08006KT P6SM SCT120 BKN150
     FM190300 22007KT P6SM SCT150
     FM191600 VRB05KT P6SM FEW150=

USA.gov is the U.S. government's official web portal to all federal, state and local government web resources and services.